Impacts TAF Board INFO
FOR SITUATIONAL AWARENESS. NOT TO BE USED FOR FLIGHT PLANNING PURPOSES.
IDs:

KATL - Atlanta/Hartsfield-J, GA, US

Issued at 0143 UTC 11 Dec 2017
Updated at 0220 UTC 11 Dec 2017
Potential Impact None Slight Moderate High
Time0152Z 11/03Z 11/04Z 11/05Z 11/06Z 11/07Z 11/08Z 11/09Z 11/10Z 11/11Z 11/12Z 11/13Z 11/14Z 11/15Z>>
Type OBS PRVL PRVL PRVL PRVL PRVL PRVL PRVL PRVL PRVL PRVL PRVL PRVL PRVL
VIS 10 >6 >6 >6 >6 >6 >6 >6 >6 >6 >6 >6 >6 >6
CIG -- -- -- -- -- -- -- -- -- -- -- -- -- --
Cover CLR SKC SKC SKC SKC SKC SKC SKC SKC SKC SKC SKC SKC SKC
FltCat VFR VFR VFR VFR VFR VFR VFR VFR VFR VFR VFR VFR VFR VFR
WX -- -- -- -- -- -- -- -- -- -- -- -- -- --
WDir 270 270 270 270 270 270 270 270 270 270 270 270 270 270
WSpd 6 5 5 5 5 5 5 5 5 5 5 5 6 6
WGst -- -- -- -- -- -- -- -- -- -- -- -- -- --

Raw TAF
KATL 110143Z 1102/1206 27005KT P6SM SKC
  FM111400 27006KT P6SM SKC
  FM111800 25008KT P6SM FEW070
  FM112300 24005KT P6SM FEW250


Raw METAR
KATL 110152Z 27006KT 10SM CLR 03/M04 A3022 RMK AO2 SLP244 T00281039
KATL 110052Z 24004KT 10SM CLR 03/M03 A3022 RMK AO2 SLP244 T00281033
KATL 102352Z 28007KT 10SM CLR 02/M03 A3023 RMK AO2 SLP247 T00221033 10072 20022 53002

METAR Board
Radar Display
Forecast Discussion

FOR SITUATIONAL AWARENESS. NOT TO BE USED FOR FLIGHT PLANNING PURPOSES.